Time;durP1;ratioP1;P1;durP2;ratioP2;P2;SDS_P1;SDS_P2;PMS_P1;PMS_P2;Temp;Humidity;BMP_temperature;BMP_pressure;BME280_temperature;BME280_humidity;BME280_pressure;Samples;Min_cycle;Max_cycle;Signal;HPM_P1;HPM_P2
2023/12/18 00:01:44;;;;;;;26.90;14.07;;;;;;;-1.41;100.00;100817.00;5048590;28;20059;-76
2023/12/18 00:04:09;;;;;;;26.98;13.55;;;;;;;-1.33;100.00;100828.94;5066796;28;20326;-76
2023/12/18 00:06:35;;;;;;;26.50;12.90;;;;;;;-1.42;100.00;100816.13;5079549;28;20032;-76
2023/12/18 00:09:00;;;;;;;26.15;14.00;;;;;;;-1.47;100.00;100815.50;5071617;28;20075;-76
2023/12/18 00:11:25;;;;;;;26.50;14.18;;;;;;;-1.41;100.00;100822.31;5068688;28;20095;-76
2023/12/18 00:13:51;;;;;;;27.65;12.57;;;;;;;-1.60;100.00;100785.19;5054639;28;20385;-76
2023/12/18 00:16:16;;;;;;;25.65;13.10;;;;;;;-1.50;100.00;100804.19;5067024;28;20025;-76
2023/12/18 00:18:42;;;;;;;27.58;13.68;;;;;;;-1.56;100.00;100802.69;5048821;28;20040;-76
2023/12/18 00:21:07;;;;;;;29.23;14.98;;;;;;;-1.63;100.00;100788.00;5045057;28;20444;-76
2023/12/18 00:23:32;;;;;;;27.50;13.73;;;;;;;-1.53;100.00;100786.63;5029744;28;20017;-76
2023/12/18 00:25:58;;;;;;;27.60;14.18;;;;;;;-1.49;100.00;100787.31;5045085;28;20075;-76
2023/12/18 00:28:23;;;;;;;29.05;14.20;;;;;;;-1.53;100.00;100781.31;5058683;28;20027;-76
2023/12/18 00:30:48;;;;;;;30.10;13.98;;;;;;;-1.59;100.00;100781.63;5077853;28;20345;-76
2023/12/18 00:33:14;;;;;;;26.52;13.68;;;;;;;-1.66;100.00;100783.72;5045090;28;20106;-76
2023/12/18 00:35:40;;;;;;;24.67;13.45;;;;;;;-1.66;100.00;100781.06;5066154;28;20025;-76
2023/12/18 00:38:05;;;;;;;29.10;13.55;;;;;;;-1.48;100.00;100773.13;5048499;28;20025;-76
2023/12/18 00:40:30;;;;;;;33.25;15.18;;;;;;;-1.53;100.00;100780.47;5050845;28;20036;-76
2023/12/18 00:42:57;;;;;;;29.65;14.88;;;;;;;-1.59;100.00;100773.66;5082836;28;20028;-76
2023/12/18 00:45:22;;;;;;;30.02;15.18;;;;;;;-1.56;100.00;100786.78;5083161;28;20021;-76
2023/12/18 00:47:48;;;;;;;31.13;13.80;;;;;;;-1.64;100.00;100781.00;5071678;28;20020;-77
2023/12/18 00:50:13;;;;;;;23.25;13.00;;;;;;;-1.64;100.00;100773.03;5059580;28;20025;-76
2023/12/18 00:52:39;;;;;;;25.27;12.75;;;;;;;-1.64;100.00;100789.81;5051351;28;20340;-76
2023/12/18 00:55:08;;;;;;;33.45;13.43;;;;;;;-1.73;100.00;100773.47;5067750;28;20032;-76
2023/12/18 00:57:33;;;;;;;27.83;13.68;;;;;;;-1.76;100.00;100771.84;5085636;28;20330;-76
2023/12/18 00:59:59;;;;;;;31.13;13.73;;;;;;;-1.69;100.00;100783.03;5085885;28;20039;-76
2023/12/18 01:02:25;;;;;;;31.73;14.48;;;;;;;-1.77;100.00;100765.69;5065512;28;20052;-76
2023/12/18 01:04:50;;;;;;;32.50;14.55;;;;;;;-1.76;100.00;100782.47;5048115;28;20062;-76
2023/12/18 01:07:15;;;;;;;24.67;13.43;;;;;;;-1.83;100.00;100779.25;5054188;28;20017;-76
2023/12/18 01:09:41;;;;;;;24.17;12.43;;;;;;;-1.88;100.00;100775.13;5064369;28;20024;-76
2023/12/18 01:12:06;;;;;;;31.73;14.00;;;;;;;-1.84;100.00;100781.97;5046735;28;20127;-76
2023/12/18 01:14:32;;;;;;;29.65;14.30;;;;;;;-1.86;100.00;100774.13;5056006;28;20338;-76
2023/12/18 01:16:57;;;;;;;27.02;13.77;;;;;;;-1.82;100.00;100769.50;5057214;28;20096;-76
2023/12/18 01:19:22;;;;;;;27.75;14.27;;;;;;;-1.85;100.00;100753.75;5085524;28;20025;-76
2023/12/18 01:21:48;;;;;;;28.05;14.38;;;;;;;-1.75;100.00;100768.28;5068519;28;20036;-76
2023/12/18 01:24:13;;;;;;;29.75;14.02;;;;;;;-1.76;100.00;100769.19;5065528;28;20087;-76
2023/12/18 01:26:38;;;;;;;26.55;14.52;;;;;;;-1.73;100.00;100762.88;5054650;28;20132;-76
2023/12/18 01:29:04;;;;;;;30.45;14.10;;;;;;;-1.76;100.00;100763.88;5034450;28;20317;-76
2023/12/18 01:31:30;;;;;;;27.73;14.18;;;;;;;-1.77;100.00;100765.69;5037722;28;20021;-76
2023/12/18 01:33:55;;;;;;;28.30;14.15;;;;;;;-1.72;100.00;100785.84;5043260;28;20025;-76
2023/12/18 01:36:21;;;;;;;27.42;13.55;;;;;;;-1.89;100.00;100750.38;5061145;28;20301;-76
2023/12/18 01:38:47;;;;;;;26.27;12.57;;;;;;;-1.78;100.00;100765.78;5047154;28;20173;-76
2023/12/18 01:41:12;;;;;;;24.42;13.25;;;;;;;-1.73;100.00;100779.66;5063262;28;20043;-76
2023/12/18 01:43:38;;;;;;;25.98;12.95;;;;;;;-1.77;100.00;100767.47;5063924;28;20033;-77
2023/12/18 01:46:05;;;;;;;26.35;13.10;;;;;;;-1.80;100.00;100754.38;5040048;28;20028;-76
2023/12/18 01:48:31;;;;;;;22.73;12.23;;;;;;;-1.71;100.00;100759.22;5064737;28;20021;-76
2023/12/18 01:50:58;;;;;;;26.25;12.73;;;;;;;-1.78;100.00;100750.72;5046581;28;20107;-76
2023/12/18 01:53:27;;;;;;;24.38;12.30;;;;;;;-1.69;100.00;100754.69;5063198;28;20020;-76
2023/12/18 01:55:53;;;;;;;29.40;12.75;;;;;;;-1.66;100.00;100751.88;5064856;28;20275;-76
2023/12/18 01:58:18;;;;;;;31.35;13.63;;;;;;;-1.82;100.00;100740.31;5046973;28;20062;-76
2023/12/18 02:00:44;;;;;;;23.85;12.88;;;;;;;-1.85;100.00;100748.44;5034641;28;20028;-76
2023/12/18 02:03:10;;;;;;;24.58;12.30;;;;;;;-1.94;100.00;100743.56;5044078;28;20063;-77
2023/12/18 02:05:37;;;;;;;25.00;12.88;;;;;;;-1.97;100.00;100741.94;5049339;28;20249;-76
2023/12/18 02:08:03;;;;;;;24.00;12.32;;;;;;;-1.92;100.00;100739.06;5063288;28;20283;-76
2023/12/18 02:10:29;;;;;;;24.63;11.90;;;;;;;-2.01;100.00;100725.31;5068118;28;20052;-76
2023/12/18 02:12:55;;;;;;;27.95;13.20;;;;;;;-2.00;100.00;100736.78;5074346;28;20118;-76
2023/12/18 02:15:20;;;;;;;25.38;12.20;;;;;;;-2.01;100.00;100738.59;5041118;28;20325;-77
2023/12/18 02:17:45;;;;;;;24.05;12.15;;;;;;;-2.12;100.00;100724.13;5068695;28;20016;-76
2023/12/18 02:20:11;;;;;;;21.38;11.45;;;;;;;-2.13;100.00;100733.88;5050200;28;20021;-76
2023/12/18 02:22:45;;;;;;;21.30;11.27;;;;;;;-2.15;100.00;100749.00;5045458;28;20225;-77
2023/12/18 02:25:11;;;;;;;22.52;11.57;;;;;;;-2.07;100.00;100730.06;5032387;28;20020;-76
2023/12/18 02:27:37;;;;;;;28.42;12.85;;;;;;;-2.08;100.00;100734.50;5057514;28;20063;-77
2023/12/18 02:30:03;;;;;;;24.15;11.95;;;;;;;-2.10;100.00;100728.41;5090402;28;20085;-77
2023/12/18 02:32:29;;;;;;;23.90;12.27;;;;;;;-2.18;100.00;100725.28;5084436;28;20013;-77
2023/12/18 02:34:54;;;;;;;23.35;12.05;;;;;;;-2.15;100.00;100711.00;5073390;28;20032;-76
2023/12/18 02:37:19;;;;;;;29.02;13.07;;;;;;;-2.13;100.00;100715.31;5064471;28;20026;-77
2023/12/18 02:39:45;;;;;;;25.95;12.68;;;;;;;-2.16;100.00;100701.34;5058460;28;20028;-76
2023/12/18 02:42:10;;;;;;;25.05;13.57;;;;;;;-2.07;100.00;100717.69;5083255;28;20017;-77
2023/12/18 02:44:35;;;;;;;29.05;13.52;;;;;;;-2.18;100.00;100708.53;5089099;28;20009;-77
2023/12/18 02:47:01;;;;;;;27.55;12.48;;;;;;;-2.35;100.00;100688.16;5071990;28;20012;-77
2023/12/18 02:49:26;;;;;;;31.70;13.90;;;;;;;-2.25;100.00;100705.31;5065240;28;20017;-76
2023/12/18 02:51:51;;;;;;;23.42;12.85;;;;;;;-2.25;100.00;100702.69;5045924;28;20025;-76
2023/12/18 02:54:17;;;;;;;24.10;12.73;;;;;;;-2.23;100.00;100706.09;5046379;28;20041;-76
2023/12/18 02:56:42;;;;;;;26.52;11.48;;;;;;;-2.23;100.00;100700.78;5042880;28;20322;-76
2023/12/18 02:59:07;;;;;;;20.88;10.65;;;;;;;-2.23;100.00;100696.38;5048962;28;20016;-76
2023/12/18 03:01:32;;;;;;;19.25;9.88;;;;;;;-2.18;100.00;100700.56;5056062;28;20084;-76
2023/12/18 03:03:58;;;;;;;18.45;9.75;;;;;;;-2.13;100.00;100702.06;5063876;28;20017;-76
2023/12/18 03:06:23;;;;;;;19.05;9.80;;;;;;;-2.11;100.00;100702.00;5064123;28;20032;-76
2023/12/18 03:08:48;;;;;;;24.40;10.70;;;;;;;-2.04;100.00;100704.25;5063793;28;20155;-76
2023/12/18 03:11:14;;;;;;;22.75;11.98;;;;;;;-2.19;100.00;100681.16;5067200;28;20021;-76
2023/12/18 03:13:39;;;;;;;23.25;11.95;;;;;;;-2.19;100.00;100694.41;5048903;28;20048;-76
2023/12/18 03:16:05;;;;;;;19.55;10.45;;;;;;;-2.19;100.00;100704.16;5057670;28;20025;-76
2023/12/18 03:18:30;;;;;;;22.27;10.52;;;;;;;-2.28;100.00;100687.78;5062875;28;20070;-76
2023/12/18 03:20:55;;;;;;;19.85;10.60;;;;;;;-2.21;100.00;100696.28;5045293;28;20025;-77
2023/12/18 03:23:21;;;;;;;20.52;10.30;;;;;;;-2.28;100.00;100693.06;5054659;28;20044;-76
2023/12/18 03:25:46;;;;;;;23.25;11.20;;;;;;;-2.28;100.00;100694.84;5070769;28;20016;-76
2023/12/18 03:28:13;;;;;;;20.95;10.45;;;;;;;-2.23;100.00;100700.78;5052066;28;20017;-76
2023/12/18 03:30:38;;;;;;;24.67;11.93;;;;;;;-2.29;100.00;100695.78;5045172;28;20059;-76
2023/12/18 03:33:04;;;;;;;23.45;11.77;;;;;;;-2.45;100.00;100698.34;5053449;28;20016;-77
2023/12/18 03:35:29;;;;;;;25.20;12.05;;;;;;;-2.46;100.00;100691.31;5065152;28;20397;-76
2023/12/18 03:37:54;;;;;;;20.92;10.77;;;;;;;-2.47;100.00;100682.50;5071761;28;20012;-76
2023/12/18 03:40:19;;;;;;;26.65;11.77;;;;;;;-2.33;100.00;100696.84;5043433;28;20056;-76
2023/12/18 03:42:45;;;;;;;21.80;11.85;;;;;;;-2.37;100.00;100693.50;5052607;28;20048;-76
2023/12/18 03:45:10;;;;;;;19.67;10.80;;;;;;;-2.41;100.00;100702.56;5026447;28;20029;-76
2023/12/18 03:47:35;;;;;;;21.67;11.27;;;;;;;-2.29;100.00;100707.25;5063095;28;20021;-76
2023/12/18 03:50:00;;;;;;;21.02;11.35;;;;;;;-2.42;100.00;100699.03;5062036;28;20068;-77
2023/12/18 03:52:26;;;;;;;19.25;10.50;;;;;;;-2.55;100.00;100683.81;5048050;28;20021;-77
2023/12/18 03:54:51;;;;;;;23.20;10.85;;;;;;;-2.45;100.00;100699.19;5042916;28;20030;-77
2023/12/18 03:57:16;;;;;;;23.30;11.38;;;;;;;-2.45;100.00;100685.94;5043483;28;20377;-77
2023/12/18 03:59:41;;;;;;;21.27;10.85;;;;;;;-2.37;100.00;100708.56;5042759;28;20059;-77
2023/12/18 04:02:07;;;;;;;22.40;11.98;;;;;;;-2.44;100.00;100695.63;5052626;28;20033;-77
2023/12/18 04:04:32;;;;;;;20.58;11.13;;;;;;;-2.49;100.00;100689.69;5057984;28;21789;-77
2023/12/18 04:06:57;;;;;;;20.70;10.23;;;;;;;-2.48;100.00;100691.38;5057794;28;20059;-77
2023/12/18 04:09:22;;;;;;;26.27;11.75;;;;;;;-2.62;100.00;100664.72;5027657;28;20028;-76
2023/12/18 04:11:48;;;;;;;24.17;10.95;;;;;;;-2.49;100.00;100679.09;5077887;28;20095;-76
2023/12/18 04:14:14;;;;;;;22.98;10.65;;;;;;;-2.52;100.00;100676.53;5082726;28;20271;-77
2023/12/18 04:16:39;;;;;;;23.02;10.30;;;;;;;-2.57;100.00;100670.59;5047707;28;20021;-76
2023/12/18 04:19:04;;;;;;;24.50;12.00;;;;;;;-2.53;100.00;100681.94;5039157;28;20028;-77
2023/12/18 04:21:30;;;;;;;23.98;10.75;;;;;;;-2.49;100.00;100686.16;5062767;28;20032;-76
2023/12/18 04:23:55;;;;;;;21.85;11.02;;;;;;;-2.51;100.00;100680.94;5062395;28;20036;-77
2023/12/18 04:26:20;;;;;;;26.85;11.57;;;;;;;-2.49;100.00;100681.72;5154336;23;20048;-48
2023/12/18 04:28:46;;;;;;;21.67;10.80;;;;;;;-2.44;100.00;100679.72;5038637;28;20033;-48
2023/12/18 04:31:11;;;;;;;21.60;10.65;;;;;;;-2.62;100.00;100664.72;5049053;28;20037;-48
2023/12/18 04:33:40;;;;;;;25.25;10.85;;;;;;;-2.45;100.00;100682.44;5039306;28;20095;-48
2023/12/18 04:36:06;;;;;;;23.70;10.90;;;;;;;-2.44;100.00;100679.72;5037567;28;20028;-48
2023/12/18 04:38:31;;;;;;;23.13;10.88;;;;;;;-2.44;100.00;100681.47;5035934;28;20079;-48
2023/12/18 04:40:57;;;;;;;30.65;12.80;;;;;;;-2.43;100.00;100684.06;5026241;28;20041;-53
2023/12/18 04:43:22;;;;;;;31.38;12.43;;;;;;;-2.35;100.00;100685.50;5036020;28;20036;-49
2023/12/18 04:45:48;;;;;;;28.30;11.93;;;;;;;-2.42;100.00;100682.28;5042574;28;20480;-48
2023/12/18 04:48:13;;;;;;;27.10;13.13;;;;;;;-2.43;100.00;100673.47;5039563;28;20052;-48
2023/12/18 04:50:38;;;;;;;25.33;12.30;;;;;;;-2.44;100.00;100677.06;5054721;28;20510;-48
2023/12/18 04:53:04;;;;;;;22.70;12.50;;;;;;;-2.50;100.00;100682.63;5038184;28;20465;-48
2023/12/18 04:55:29;;;;;;;25.15;12.00;;;;;;;-2.56;100.00;100679.44;5029951;28;20491;-50
2023/12/18 04:57:56;;;;;;;24.50;12.75;;;;;;;-2.53;100.00;100689.91;5040406;28;20032;-48
2023/12/18 05:00:21;;;;;;;25.33;12.65;;;;;;;-2.61;100.00;100689.41;5044205;28;20045;-48
2023/12/18 05:02:47;;;;;;;25.13;12.68;;;;;;;-2.68;100.00;100679.06;5047694;28;20032;-48
2023/12/18 05:05:12;;;;;;;26.85;13.38;;;;;;;-2.71;100.00;100687.19;5029838;28;20468;-48
2023/12/18 05:07:38;;;;;;;30.55;13.35;;;;;;;-2.75;100.00;100682.09;5032691;28;20119;-48
2023/12/18 05:10:03;;;;;;;27.33;12.65;;;;;;;-2.76;100.00;100681.22;5057297;28;20032;-48
2023/12/18 05:12:29;;;;;;;28.90;12.75;;;;;;;-2.78;100.00;100677.78;5045762;28;20547;-48
2023/12/18 05:14:54;;;;;;;30.25;13.00;;;;;;;-2.80;100.00;100682.31;5031681;28;20033;-48
2023/12/18 05:17:20;;;;;;;25.30;12.05;;;;;;;-2.82;100.00;100684.19;5032438;28;20358;-48
2023/12/18 05:19:45;;;;;;;25.50;12.90;;;;;;;-2.74;100.00;100683.81;5028654;28;20039;-49
2023/12/18 05:22:10;;;;;;;25.10;12.75;;;;;;;-2.77;100.00;100687.47;5062045;28;20119;-50
2023/12/18 05:24:36;;;;;;;24.02;12.93;;;;;;;-2.81;100.00;100688.53;5040937;28;20032;-49
2023/12/18 05:27:01;;;;;;;23.15;12.07;;;;;;;-2.88;100.00;100695.94;5036081;28;20025;-52
2023/12/18 05:29:27;;;;;;;26.77;13.27;;;;;;;-2.87;100.00;100688.84;5021332;28;20028;-54
2023/12/18 05:31:52;;;;;;;27.10;12.68;;;;;;;-2.91;100.00;100690.78;5042920;28;20115;-54
2023/12/18 05:34:19;;;;;;;27.30;12.75;;;;;;;-2.87;100.00;100688.84;5035949;28;20056;-54
2023/12/18 05:36:44;;;;;;;25.15;12.60;;;;;;;-2.86;100.00;100690.53;5033454;28;20030;-54
2023/12/18 05:39:09;;;;;;;29.20;13.65;;;;;;;-2.86;100.00;100682.59;5035980;28;20017;-53
2023/12/18 05:41:35;;;;;;;28.10;12.95;;;;;;;-2.90;100.00;100689.84;5028851;28;20033;-53
2023/12/18 05:44:00;;;;;;;33.90;16.08;;;;;;;-2.80;100.00;100692.94;5038047;28;20349;-54
2023/12/18 05:46:26;;;;;;;43.45;19.70;;;;;;;-2.72;100.00;100689.91;5037221;28;20021;-54
2023/12/18 05:48:52;;;;;;;39.50;18.67;;;;;;;-2.66;100.00;100697.56;5026900;28;20020;-55
2023/12/18 05:51:19;;;;;;;34.80;14.98;;;;;;;-2.60;100.00;100699.06;5025967;28;20025;-54
2023/12/18 05:53:44;;;;;;;31.60;14.13;;;;;;;-2.73;100.00;100704.94;5035322;28;20028;-54
2023/12/18 05:56:11;;;;;;;27.83;12.82;;;;;;;-2.87;100.00;100705.56;5028839;28;20021;-54
2023/12/18 05:58:36;;;;;;;26.35;12.18;;;;;;;-2.87;100.00;100705.56;5036299;28;20083;-54
2023/12/18 06:01:02;;;;;;;26.80;12.60;;;;;;;-2.84;100.00;100706.38;5033164;28;20021;-53
2023/12/18 06:03:27;;;;;;;27.20;13.52;;;;;;;-2.84;100.00;100701.94;5032973;28;20074;-54
2023/12/18 06:05:52;;;;;;;31.15;14.50;;;;;;;-2.82;100.00;100700.06;5014887;28;20112;-54
2023/12/18 06:08:19;;;;;;;34.40;12.90;;;;;;;-2.79;100.00;100701.72;5030227;28;20091;-54
2023/12/18 06:10:44;;;;;;;33.67;15.50;;;;;;;-2.83;100.00;100700.13;5044738;28;20021;-54
2023/12/18 06:13:11;;;;;;;26.88;13.25;;;;;;;-2.72;100.00;100700.50;5037687;28;20028;-54
2023/12/18 06:15:36;;;;;;;33.58;13.80;;;;;;;-2.64;100.00;100706.31;5027192;28;20065;-54
2023/12/18 06:18:01;;;;;;;39.10;16.80;;;;;;;-2.77;100.00;100694.56;5030258;28;21765;-54
2023/12/18 06:20:27;;;;;;;45.30;20.08;;;;;;;-2.81;100.00;100690.34;5028433;28;20115;-54
2023/12/18 06:22:52;;;;;;;45.45;18.13;;;;;;;-2.84;100.00;100701.94;5034058;28;20025;-54
2023/12/18 06:25:18;;;;;;;42.08;16.92;;;;;;;-2.85;100.00;100699.38;5034725;28;20044;-54
2023/12/18 06:27:44;;;;;;;36.35;15.68;;;;;;;-2.88;100.00;100697.72;5027472;28;20104;-54
2023/12/18 06:30:09;;;;;;;28.30;14.23;;;;;;;-2.83;100.00;100698.34;5026741;28;20115;-54
2023/12/18 06:32:35;;;;;;;34.00;15.68;;;;;;;-2.82;100.00;100705.38;5034019;28;20115;-54
2023/12/18 06:35:00;;;;;;;30.13;13.88;;;;;;;-2.87;100.00;100699.44;5038837;28;20029;-54
2023/12/18 06:37:27;;;;;;;41.03;14.57;;;;;;;-2.92;100.00;100715.53;5029500;28;20032;-48
2023/12/18 06:39:52;;;;;;;32.35;13.68;;;;;;;-2.99;100.00;100723.81;5052488;28;20033;-48
2023/12/18 06:42:18;;;;;;;34.35;13.30;;;;;;;-3.02;100.00;100722.16;5030846;28;20025;-49
2023/12/18 06:44:43;;;;;;;26.00;13.13;;;;;;;-2.99;100.00;100731.75;5031820;28;20059;-48
2023/12/18 06:47:08;;;;;;;28.95;12.15;;;;;;;-2.97;100.00;100725.47;5033729;28;20645;-48
2023/12/18 06:49:34;;;;;;;28.77;12.85;;;;;;;-3.08;100.00;100718.00;5035012;28;20098;-48
2023/12/18 06:51:59;;;;;;;35.15;13.88;;;;;;;-3.11;100.00;100726.09;5029447;28;20029;-48
2023/12/18 06:54:26;;;;;;;27.95;13.50;;;;;;;-3.02;100.00;100724.81;5020831;28;20552;-48
2023/12/18 06:56:52;;;;;;;29.60;13.48;;;;;;;-2.99;100.00;100722.03;5047764;28;20090;-48
2023/12/18 06:59:17;;;;;;;30.05;13.52;;;;;;;-2.97;100.00;100725.47;5032628;28;20020;-48
2023/12/18 07:01:42;;;;;;;33.17;13.23;;;;;;;-2.96;100.00;100721.91;5023285;28;20128;-49
2023/12/18 07:04:09;;;;;;;29.58;12.50;;;;;;;-2.94;100.00;100719.19;5028067;28;20426;-49
2023/12/18 07:06:34;;;;;;;27.52;12.80;;;;;;;-2.96;100.00;100721.91;5026266;28;20025;-48
2023/12/18 07:09:00;;;;;;;31.27;13.48;;;;;;;-2.96;100.00;100723.66;5023103;28;20029;-48
2023/12/18 07:11:25;;;;;;;34.22;15.20;;;;;;;-3.00;100.00;100724.75;5034450;28;20029;-48
2023/12/18 07:13:52;;;;;;;28.92;13.80;;;;;;;-3.03;100.00;100724.91;5026327;28;20032;-48
2023/12/18 07:16:21;;;;;;;23.27;11.80;;;;;;;-3.03;100.00;100716.97;5027999;28;20028;-48
2023/12/18 07:18:47;;;;;;;24.92;11.90;;;;;;;-2.98;100.00;100725.56;5022805;28;20025;-48
2023/12/18 07:21:12;;;;;;;25.38;12.40;;;;;;;-2.96;100.00;100724.56;5028859;28;20028;-48
2023/12/18 07:23:38;;;;;;;21.27;10.15;;;;;;;-2.81;100.00;100727.41;5029712;28;20036;-48
2023/12/18 07:26:05;;;;;;;22.30;11.63;;;;;;;-2.80;100.00;100737.06;5043684;28;20021;-48
2023/12/18 07:28:30;;;;;;;22.05;11.45;;;;;;;-2.63;100.00;100733.66;5020705;28;20040;-48
2023/12/18 07:30:56;;;;;;;29.35;12.65;;;;;;;-2.58;100.00;100740.44;5013852;28;20025;-49
2023/12/18 07:33:21;;;;;;;25.67;11.95;;;;;;;-2.58;100.00;100726.34;5016595;28;20025;-48
2023/12/18 07:35:46;;;;;;;22.30;11.68;;;;;;;-2.57;100.00;100747.47;5014250;28;20025;-49
2023/12/18 07:38:13;;;;;;;23.38;12.57;;;;;;;-2.57;100.00;100747.47;5012322;28;20060;-48
2023/12/18 07:40:38;;;;;;;26.15;11.88;;;;;;;-2.47;100.00;100746.09;5010320;28;20079;-48
2023/12/18 07:43:04;;;;;;;21.42;11.25;;;;;;;-2.44;100.00;100740.69;5014332;28;20032;-53
2023/12/18 07:45:29;;;;;;;19.85;11.25;;;;;;;-2.45;100.00;100738.09;5011951;28;20087;-48
2023/12/18 07:47:54;;;;;;;21.80;11.60;;;;;;;-2.40;100.00;100741.38;5031650;28;20033;-49
2023/12/18 07:50:20;;;;;;;22.73;11.00;;;;;;;-2.33;100.00;100747.22;5014500;28;20036;-49
2023/12/18 07:52:45;;;;;;;28.42;13.40;;;;;;;-2.27;100.00;100746.97;5012556;28;20036;-48
2023/12/18 07:55:11;;;;;;;39.55;15.98;;;;;;;-2.26;100.00;100736.25;5024730;28;20040;-48
2023/12/18 07:57:37;;;;;;;41.40;17.45;;;;;;;-2.17;100.00;100748.22;5024619;28;20032;-48
2023/12/18 08:00:04;;;;;;;53.55;23.75;;;;;;;-2.16;100.00;100747.28;5024657;28;20029;-47
2023/12/18 08:02:29;;;;;;;45.50;21.00;;;;;;;-2.13;100.00;100744.47;5030328;28;20059;-47
2023/12/18 08:04:55;;;;;;;40.63;20.15;;;;;;;-2.07;100.00;100745.97;5030241;28;20118;-48
2023/12/18 08:07:20;;;;;;;50.15;19.95;;;;;;;-2.06;100.00;100740.59;5030032;28;20491;-51
2023/12/18 08:09:46;;;;;;;32.90;15.93;;;;;;;-1.88;100.00;100745.94;5028236;28;20031;-50
2023/12/18 08:12:12;;;;;;;38.63;18.27;;;;;;;-1.73;100.00;100745.16;5027403;28;20021;-50
2023/12/18 08:14:37;;;;;;;34.72;16.10;;;;;;;-1.74;100.00;100738.13;5027108;28;20037;-50
2023/12/18 08:17:03;;;;;;;41.45;16.17;;;;;;;-1.70;100.00;100730.88;5032484;28;20167;-50
2023/12/18 08:19:29;;;;;;;33.58;14.45;;;;;;;-1.66;100.00;100724.47;5033665;28;20036;-51
2023/12/18 08:21:54;;;;;;;41.25;18.15;;;;;;;-1.61;100.00;100723.31;5033915;28;20037;-49
2023/12/18 08:24:20;;;;;;;47.28;19.42;;;;;;;-1.49;100.00;100734.22;5026938;28;20029;-50
2023/12/18 08:26:49;;;;;;;43.15;19.98;;;;;;;-1.29;100.00;100735.84;5026905;28;20024;-50
2023/12/18 08:29:14;;;;;;;41.10;17.92;;;;;;;-1.23;100.00;100723.13;5028997;28;20032;-50
2023/12/18 08:31:39;;;;;;;36.10;17.40;;;;;;;-1.13;100.00;100721.72;5024238;28;20029;-50
2023/12/18 08:34:05;;;;;;;39.15;18.63;;;;;;;-1.01;100.00;100720.19;5026972;28;20155;-50
2023/12/18 08:36:31;;;;;;;30.33;15.50;;;;;;;-0.90;100.00;100722.25;5046356;28;20066;-49
2023/12/18 08:38:57;;;;;;;29.30;14.18;;;;;;;-0.88;100.00;100721.22;5025342;28;20388;-50
2023/12/18 08:41:22;;;;;;;28.67;14.23;;;;;;;-0.97;100.00;100720.84;5043298;28;20036;-50
2023/12/18 08:43:47;;;;;;;29.52;13.52;;;;;;;-0.76;100.00;100716.19;5041653;28;20037;-50
2023/12/18 08:46:13;;;;;;;24.05;12.48;;;;;;;-0.65;100.00;100715.63;5027004;28;20033;-49
2023/12/18 08:48:38;;;;;;;28.38;13.63;;;;;;;-0.44;100.00;100719.72;5040623;28;20115;-50
2023/12/18 08:51:04;;;;;;;31.05;12.93;;;;;;;-0.35;100.00;100703.25;5026030;28;20092;-50
2023/12/18 08:53:29;;;;;;;26.90;13.20;;;;;;;-0.23;100.00;100702.56;5027227;28;20025;-50
2023/12/18 08:55:54;;;;;;;18.17;9.68;;;;;;;-0.06;100.00;100714.88;5027507;28;20819;-50
2023/12/18 08:58:21;;;;;;;23.73;12.00;;;;;;;0.02;100.00;100719.75;5027766;28;20067;-50
2023/12/18 09:00:47;;;;;;;24.95;13.57;;;;;;;0.03;100.00;100709.97;5022398;28;20124;-50
2023/12/18 09:03:12;;;;;;;32.42;15.43;;;;;;;0.03;100.00;100709.97;5022059;28;20460;-50
2023/12/18 09:05:37;;;;;;;32.58;14.35;;;;;;;0.08;100.00;100697.25;5026917;28;20041;-50
2023/12/18 09:08:05;;;;;;;28.92;14.05;;;;;;;0.79;100.00;100708.06;5041389;28;20037;-50
2023/12/18 09:10:32;;;;;;;27.02;13.02;;;;;;;1.91;100.00;100692.06;5028348;28;20062;-51
2023/12/18 09:12:59;;;;;;;28.05;12.90;;;;;;;3.68;100.00;100670.75;5021599;28;20687;-51
2023/12/18 09:15:24;;;;;;;20.27;10.55;;;;;;;5.71;100.00;100657.63;5030716;28;20028;-52
2023/12/18 09:17:49;;;;;;;19.13;10.98;;;;;;;6.98;100.00;100649.50;5042599;28;20024;-52
2023/12/18 09:20:15;;;;;;;21.95;10.20;;;;;;;7.03;100.00;100649.09;5042998;28;20037;-52
2023/12/18 09:22:40;;;;;;;21.70;10.43;;;;;;;5.24;100.00;100651.63;5034030;28;20033;-49
2023/12/18 09:25:06;;;;;;;21.13;10.40;;;;;;;4.79;100.00;100655.19;5029767;28;20067;-51
2023/12/18 09:27:31;;;;;;;22.05;10.15;;;;;;;6.09;100.00;100649.09;5028835;28;20115;-50
2023/12/18 09:29:57;;;;;;;17.95;9.73;;;;;;;8.41;100.00;100641.97;5027713;28;20029;-50
2023/12/18 09:32:23;;;;;;;17.50;9.50;;;;;;;10.46;100.00;100633.59;5026741;28;20032;-50
2023/12/18 09:34:48;;;;;;;14.40;9.60;;;;;;;11.76;99.66;100630.69;5019501;28;20040;-50
2023/12/18 09:37:14;;;;;;;14.85;8.73;;;;;;;11.86;84.56;100627.81;5028916;28;20021;-51
2023/12/18 09:39:42;;;;;;;13.27;8.70;;;;;;;12.71;77.50;100627.50;5035254;28;20029;-51
2023/12/18 09:42:11;;;;;;;12.43;8.00;;;;;;;13.42;71.07;100619.50;5024060;28;20116;-52
2023/12/18 09:44:37;;;;;;;12.68;9.15;;;;;;;13.73;65.75;100623.06;5024033;28;20040;-52
2023/12/18 09:47:03;;;;;;;12.73;7.90;;;;;;;15.25;64.21;100612.16;5022116;28;20539;-52
2023/12/18 09:49:30;;;;;;;13.57;7.32;;;;;;;15.64;62.30;100606.34;5028818;28;20472;-52
2023/12/18 09:52:06;;;;;;;13.13;7.05;;;;;;;15.21;61.90;100610.84;5034050;28;20042;-52
2023/12/18 09:54:33;;;;;;;11.02;7.63;;;;;;;14.74;62.04;100604.72;5030364;28;20029;-51
2023/12/18 09:57:02;;;;;;;11.65;6.70;;;;;;;15.42;60.01;100596.41;5028959;28;20020;-50
2023/12/18 09:59:28;;;;;;;;;;;;;;;15.85;58.48;100599.25;5024630;28;20090;-50
2023/12/18 10:01:54;;;;;;;9.82;6.20;;;;;;;15.75;56.95;100596.84;5039281;28;19916;-50
2023/12/18 10:04:19;;;;;;;9.70;6.53;;;;;;;14.97;57.99;100603.81;5033951;28;20039;-50
2023/12/18 10:06:45;;;;;;;11.90;7.10;;;;;;;14.93;59.31;100605.19;5023940;28;20037;-51
2023/12/18 10:09:15;;;;;;;14.57;6.97;;;;;;;14.72;58.41;100601.31;5027253;28;20367;-51
2023/12/18 10:11:44;;;;;;;11.07;6.97;;;;;;;14.97;59.87;100591.00;5034871;28;20461;-58
2023/12/18 10:14:12;;;;;;;9.65;6.50;;;;;;;15.92;58.90;100586.50;5028047;28;20052;-59
2023/12/18 10:16:39;;;;;;;12.65;6.90;;;;;;;17.12;55.07;100580.09;5034560;28;20511;-59
2023/12/18 10:19:05;;;;;;;11.45;6.70;;;;;;;15.91;56.26;100590.28;5035338;28;20098;-59
2023/12/18 10:21:31;;;;;;;9.48;6.40;;;;;;;16.75;56.22;100598.56;5021718;28;20029;-59
2023/12/18 10:23:57;;;;;;;11.88;5.93;;;;;;;17.85;54.53;100594.09;5025440;28;20033;-51
2023/12/18 10:26:23;;;;;;;8.18;6.28;;;;;;;17.56;54.02;100589.78;5066101;22;20078;-76
2023/12/18 10:28:52;;;;;;;7.00;5.78;;;;;;;18.06;52.18;100584.84;5054495;28;20084;-75
2023/12/18 10:31:18;;;;;;;8.52;6.07;;;;;;;17.53;51.96;100576.50;5082903;28;20224;-76
2023/12/18 10:33:43;;;;;;;12.10;6.20;;;;;;;17.47;52.52;100582.78;5070611;28;20067;-76
2023/12/18 10:36:09;;;;;;;8.30;6.18;;;;;;;16.50;54.21;100584.50;5059056;28;20265;-76
2023/12/18 10:38:37;;;;;;;8.90;5.47;;;;;;;17.04;54.22;100580.28;5044918;28;20207;-76
2023/12/18 10:41:03;;;;;;;13.50;5.70;;;;;;;17.45;52.26;100568.47;5049510;28;20033;-76
2023/12/18 10:43:31;;;;;;;8.73;6.13;;;;;;;16.74;53.34;100572.28;5072349;28;20038;-73
2023/12/18 10:45:57;;;;;;;9.32;5.57;;;;;;;16.14;54.63;100571.00;5065224;28;20058;-73
2023/12/18 10:48:24;;;;;;;10.20;6.22;;;;;;;16.35;54.08;100557.31;5063299;28;20036;-74
2023/12/18 10:50:53;;;;;;;13.57;6.35;;;;;;;16.83;54.68;100548.41;5062990;28;20032;-73
2023/12/18 10:53:20;;;;;;;11.05;6.95;;;;;;;16.57;55.06;100559.97;5041710;28;20055;-74
2023/12/18 10:55:47;;;;;;;10.02;7.10;;;;;;;18.21;53.35;100539.97;5049321;28;20340;-75
2023/12/18 10:58:16;;;;;;;11.38;8.00;;;;;;;16.94;54.18;100556.03;5038234;28;20025;-73